createdAt,value
2023-02-02T00:01:49.558Z,89.85
2023-02-02T00:04:21.838Z,90.38
2023-02-02T00:06:50.070Z,89.97
2023-02-02T00:09:18.733Z,93.45
2023-02-02T00:11:47.297Z,87.10
2023-02-02T00:14:15.578Z,91.93
2023-02-02T00:16:53.368Z,84.68
2023-02-02T00:19:23.023Z,92.28
2023-02-02T00:21:51.104Z,88.88
2023-02-02T00:24:19.561Z,87.75
2023-02-02T00:26:48.957Z,88.15
2023-02-02T00:29:18.815Z,94.30
2023-02-02T00:31:48.401Z,85.90
2023-02-02T00:34:16.605Z,87.20
2023-02-02T00:36:45.043Z,82.65
2023-02-02T00:39:15.461Z,91.35
2023-02-02T00:41:43.458Z,90.68
2023-02-02T00:44:29.947Z,85.45
2023-02-02T00:46:57.801Z,85.65
2023-02-02T00:49:25.654Z,83.93
2023-02-02T00:51:53.503Z,87.20
2023-02-02T00:54:21.378Z,87.07
2023-02-02T00:56:49.172Z,80.82
2023-02-02T00:59:17.259Z,80.57
2023-02-02T01:01:46.510Z,82.55
2023-02-02T01:04:14.454Z,87.15
2023-02-02T01:06:42.499Z,83.68
2023-02-02T01:09:10.519Z,77.28
2023-02-02T01:11:38.427Z,79.20
2023-02-02T01:14:06.346Z,86.80
2023-02-02T01:16:34.969Z,82.35
2023-02-02T01:19:03.243Z,81.93
2023-02-02T01:21:31.006Z,79.15
2023-02-02T01:23:58.998Z,77.88
2023-02-02T01:26:26.900Z,83.68
2023-02-02T01:28:54.792Z,81.85
2023-02-02T01:31:22.700Z,79.78
2023-02-02T01:33:51.123Z,78.93
2023-02-02T01:36:21.049Z,87.13
2023-02-02T01:38:49.302Z,83.07
2023-02-02T01:41:24.603Z,75.78
2023-02-02T01:43:53.103Z,76.93
2023-02-02T01:46:30.267Z,83.25
2023-02-02T01:48:58.048Z,76.05
2023-02-02T01:51:30.731Z,72.82
2023-02-02T01:53:59.104Z,81.25
2023-02-02T01:56:34.937Z,78.43
2023-02-02T01:59:03.237Z,79.45
2023-02-02T02:01:31.673Z,83.13
2023-02-02T02:03:59.900Z,74.70
2023-02-02T02:06:29.376Z,77.38
2023-02-02T02:09:03.680Z,83.60
2023-02-02T02:11:32.544Z,82.07
2023-02-02T02:14:21.564Z,88.95
2023-02-02T02:16:49.507Z,76.88
2023-02-02T02:19:35.566Z,78.35
2023-02-02T02:22:25.169Z,83.25
2023-02-02T02:25:23.833Z,79.50
2023-02-02T02:28:11.724Z,73.53
2023-02-02T02:30:58.032Z,77.15
2023-02-02T02:33:37.609Z,81.18
2023-02-02T02:36:18.523Z,82.07
2023-02-02T02:38:53.454Z,85.70
2023-02-02T02:41:23.678Z,78.68
2023-02-02T02:43:55.352Z,83.97
2023-02-02T02:46:23.837Z,85.35
2023-02-02T02:48:52.669Z,79.25
2023-02-02T02:51:39.277Z,77.78
2023-02-02T02:54:07.999Z,84.13
2023-02-02T02:56:53.734Z,78.40
2023-02-02T02:59:34.038Z,69.93
2023-02-02T03:02:01.886Z,76.05
2023-02-02T03:04:34.579Z,79.38
2023-02-02T03:07:05.508Z,79.18
2023-02-02T03:09:35.644Z,82.82
2023-02-02T03:12:04.488Z,79.82
2023-02-02T03:14:35.940Z,82.38
2023-02-02T03:17:04.171Z,78.00
2023-02-02T03:19:32.224Z,80.32
2023-02-02T03:22:00.097Z,80.15
2023-02-02T03:24:27.933Z,81.15
2023-02-02T03:26:55.852Z,78.80
2023-02-02T03:29:23.647Z,89.65
2023-02-02T03:31:51.647Z,83.63
2023-02-02T03:34:19.413Z,83.30
2023-02-02T03:36:47.387Z,81.95
2023-02-02T03:39:15.225Z,79.45
2023-02-02T03:41:43.128Z,77.85
2023-02-02T03:44:10.944Z,80.00
2023-02-02T03:46:38.855Z,94.90
2023-02-02T03:49:06.651Z,81.38
2023-02-02T03:51:34.565Z,87.95
2023-02-02T03:54:02.329Z,80.15
2023-02-02T03:56:30.194Z,85.13
2023-02-02T03:58:57.962Z,81.63
2023-02-02T04:01:29.531Z,81.88
2023-02-02T04:03:57.970Z,84.03
2023-02-02T04:06:26.500Z,76.00
2023-02-02T04:08:54.250Z,79.97
2023-02-02T04:11:22.038Z,79.80
2023-02-02T04:13:50.019Z,81.03
2023-02-02T04:16:17.910Z,81.82
2023-02-02T04:18:45.882Z,86.43
2023-02-02T04:21:13.715Z,86.80
2023-02-02T04:23:41.659Z,89.25
2023-02-02T04:26:09.616Z,86.25
2023-02-02T04:28:37.582Z,90.82
2023-02-02T04:31:05.479Z,89.13
2023-02-02T04:33:35.053Z,92.78
2023-02-02T04:36:03.019Z,87.80
2023-02-02T04:38:30.826Z,90.13
2023-02-02T04:40:58.586Z,90.93
2023-02-02T04:43:26.468Z,92.72
2023-02-02T04:45:57.634Z,88.95
2023-02-02T04:48:25.514Z,102.40
2023-02-02T04:51:03.114Z,89.53
2023-02-02T04:53:30.997Z,100.72
2023-02-02T04:55:59.311Z,111.88
2023-02-02T04:58:27.113Z,99.72
2023-02-02T05:00:55.137Z,98.30
2023-02-02T05:03:22.999Z,105.68
2023-02-02T05:05:51.150Z,101.68
2023-02-02T05:08:19.150Z,101.97
2023-02-02T05:10:47.176Z,125.93
2023-02-02T05:13:15.225Z,105.35
2023-02-02T05:15:42.965Z,92.63
2023-02-02T05:18:10.901Z,98.15
2023-02-02T05:20:38.712Z,92.57
2023-02-02T05:23:06.655Z,209.35
2023-02-02T05:25:34.480Z,130.30
2023-02-02T05:28:02.449Z,89.28
2023-02-02T05:30:31.690Z,92.80
2023-02-02T05:33:01.191Z,97.28
2023-02-02T05:35:29.022Z,94.30
2023-02-02T05:37:59.291Z,89.32
2023-02-02T05:40:27.127Z,94.35
2023-02-02T05:42:55.095Z,123.75
2023-02-02T05:45:23.918Z,94.47
2023-02-02T05:47:55.855Z,96.13
2023-02-02T05:50:23.660Z,84.93
2023-02-02T05:53:02.936Z,86.38
2023-02-02T05:55:30.880Z,98.07
2023-02-02T05:57:58.660Z,129.20
2023-02-02T06:00:26.872Z,106.57
2023-02-02T06:02:54.868Z,122.50
2023-02-02T06:05:23.896Z,117.30
2023-02-02T06:07:51.839Z,106.88
2023-02-02T06:10:19.615Z,120.90
2023-02-02T06:12:47.597Z,153.82
2023-02-02T06:15:15.646Z,160.00
2023-02-02T06:17:43.399Z,107.63
2023-02-02T06:20:11.592Z,99.55
2023-02-02T06:22:39.365Z,119.32
2023-02-02T06:25:08.712Z,167.20
2023-02-02T06:27:36.570Z,105.85
2023-02-02T06:30:04.854Z,115.25
2023-02-02T06:32:32.893Z,115.82
2023-02-02T06:35:00.954Z,99.57
2023-02-02T06:37:30.671Z,92.18
2023-02-02T06:39:58.781Z,116.20
2023-02-02T06:42:26.555Z,99.47
2023-02-02T06:44:54.338Z,99.60
2023-02-02T06:47:22.177Z,106.15
2023-02-02T06:49:50.090Z,101.70
2023-02-02T06:52:17.842Z,103.53
2023-02-02T06:54:45.839Z,99.43
2023-02-02T06:57:17.008Z,96.72
2023-02-02T06:59:44.959Z,93.07
2023-02-02T07:02:13.342Z,97.57
2023-02-02T07:04:41.193Z,96.88
2023-02-02T07:07:10.222Z,97.95
2023-02-02T07:09:37.969Z,93.15
2023-02-02T07:12:05.832Z,80.22
2023-02-02T07:14:33.757Z,78.70
2023-02-02T07:17:01.903Z,74.35
2023-02-02T07:19:29.882Z,69.20
2023-02-02T07:21:57.767Z,80.00
2023-02-02T07:24:25.757Z,66.28
2023-02-02T07:26:53.667Z,72.88
2023-02-02T07:29:21.642Z,84.70
2023-02-02T07:31:49.886Z,70.55
2023-02-02T07:34:17.840Z,70.60
2023-02-02T07:36:45.586Z,78.10
2023-02-02T07:39:13.609Z,68.60
2023-02-02T07:41:41.544Z,69.82
2023-02-02T07:44:17.606Z,66.43
2023-02-02T07:46:47.246Z,68.63
2023-02-02T07:49:16.300Z,76.18
2023-02-02T07:51:47.701Z,74.20
2023-02-02T07:54:16.113Z,71.90
2023-02-02T07:56:44.096Z,73.70
2023-02-02T07:59:12.099Z,77.30
2023-02-02T08:01:40.072Z,76.18
2023-02-02T08:04:08.050Z,80.18
2023-02-02T08:06:37.283Z,82.47
2023-02-02T08:09:07.725Z,82.32
2023-02-02T08:11:36.474Z,85.60
2023-02-02T08:14:04.656Z,87.28
2023-02-02T08:16:33.033Z,93.22
2023-02-02T08:19:01.269Z,98.32
2023-02-02T08:21:29.048Z,95.78
2023-02-02T08:23:57.073Z,107.10
2023-02-02T08:26:26.327Z,104.28
2023-02-02T08:28:55.957Z,99.03
2023-02-02T08:31:28.398Z,103.97
2023-02-02T08:33:58.041Z,104.18
2023-02-02T08:36:27.284Z,100.90
2023-02-02T08:38:55.428Z,109.38
2023-02-02T08:41:24.461Z,108.97
2023-02-02T08:43:52.653Z,114.32
2023-02-02T08:46:21.692Z,109.65
2023-02-02T08:48:49.864Z,117.63
2023-02-02T08:51:18.751Z,115.85
2023-02-02T08:53:47.165Z,116.47
2023-02-02T08:56:16.710Z,124.47
2023-02-02T08:58:55.427Z,126.18
2023-02-02T09:01:24.457Z,124.18
2023-02-02T09:03:56.394Z,134.13
2023-02-02T09:06:27.299Z,133.82
2023-02-02T09:08:55.336Z,136.10
2023-02-02T09:11:23.310Z,126.40
2023-02-02T09:13:54.428Z,131.38
2023-02-02T09:16:22.625Z,127.75
2023-02-02T09:18:50.584Z,117.72
2023-02-02T09:21:18.852Z,134.73
2023-02-02T09:23:47.810Z,136.35
2023-02-02T09:26:15.664Z,131.77
2023-02-02T09:28:44.767Z,126.93
2023-02-02T09:31:13.238Z,129.73
2023-02-02T09:33:41.453Z,127.05
2023-02-02T09:36:13.924Z,130.05
2023-02-02T09:38:42.553Z,127.82
2023-02-02T09:41:16.752Z,129.48
2023-02-02T09:44:03.461Z,118.28
2023-02-02T09:46:48.220Z,125.38
2023-02-02T09:49:18.734Z,122.25
2023-02-02T09:51:49.518Z,122.68
2023-02-02T09:54:34.415Z,114.90
2023-02-02T09:57:03.563Z,116.05
2023-02-02T09:59:36.474Z,109.43
2023-02-02T10:02:10.937Z,113.05
2023-02-02T10:04:41.198Z,111.88
2023-02-02T10:07:12.869Z,113.80
2023-02-02T10:09:43.736Z,108.22
2023-02-02T10:12:17.679Z,104.00
2023-02-02T10:14:52.039Z,99.88
2023-02-02T10:17:35.243Z,97.72
2023-02-02T10:20:15.329Z,97.38
2023-02-02T10:22:43.678Z,100.70
2023-02-02T10:25:17.692Z,94.57
2023-02-02T10:27:51.304Z,102.85
2023-02-02T10:30:24.419Z,100.00
2023-02-02T10:32:52.361Z,104.85
2023-02-02T10:35:20.420Z,90.75
2023-02-02T10:37:54.346Z,104.22
2023-02-02T10:40:25.651Z,95.25
2023-02-02T10:43:25.290Z,92.07
2023-02-02T10:45:53.992Z,81.10
2023-02-02T10:48:23.851Z,79.05
2023-02-02T10:50:56.049Z,69.55
2023-02-02T10:53:26.021Z,73.25
2023-02-02T10:56:11.866Z,73.88
2023-02-02T10:58:45.202Z,62.50
2023-02-02T11:01:14.607Z,65.05
2023-02-02T11:03:42.697Z,64.10
2023-02-02T11:06:32.896Z,63.85
2023-02-02T11:09:01.417Z,60.42
2023-02-02T11:11:39.352Z,67.78
2023-02-02T11:14:10.554Z,60.47
2023-02-02T11:16:43.648Z,58.88
2023-02-02T11:19:32.316Z,59.78
2023-02-02T11:22:02.319Z,63.60
2023-02-02T11:24:36.773Z,56.25
2023-02-02T11:27:16.217Z,58.45
2023-02-02T11:29:47.305Z,65.93
2023-02-02T11:32:24.600Z,65.90
2023-02-02T11:35:12.832Z,64.63
2023-02-02T11:37:53.341Z,60.72
2023-02-02T11:40:32.496Z,55.40
2023-02-02T11:43:02.155Z,53.15
2023-02-02T11:45:34.688Z,46.88
2023-02-02T11:48:03.734Z,49.92
2023-02-02T11:50:31.947Z,46.83
2023-02-02T11:52:59.756Z,43.75
2023-02-02T11:55:32.141Z,41.55
2023-02-02T11:58:29.379Z,44.25
2023-02-02T12:00:57.275Z,36.53
2023-02-02T12:03:30.714Z,35.58
2023-02-02T12:05:58.766Z,33.47
2023-02-02T12:08:26.672Z,33.30
2023-02-02T12:10:59.682Z,29.40
2023-02-02T12:13:27.625Z,26.85
2023-02-02T12:16:02.215Z,29.65
2023-02-02T12:18:49.016Z,34.60
2023-02-02T12:21:17.066Z,28.52
2023-02-02T12:23:44.855Z,27.75
2023-02-02T12:26:15.716Z,26.00
2023-02-02T12:29:07.249Z,21.38
2023-02-02T12:31:35.177Z,23.92
2023-02-02T12:34:06.609Z,26.30
2023-02-02T12:36:53.269Z,25.45
2023-02-02T12:39:21.626Z,23.35
2023-02-02T12:42:08.473Z,19.10
2023-02-02T12:44:39.358Z,19.38
2023-02-02T12:47:26.357Z,22.70
2023-02-02T12:50:21.271Z,20.58
2023-02-02T12:52:55.322Z,15.18
2023-02-02T12:55:35.054Z,17.17
2023-02-02T12:58:07.548Z,14.57
2023-02-02T13:00:42.728Z,15.02
2023-02-02T13:03:26.966Z,13.48
2023-02-02T13:06:13.807Z,19.58
2023-02-02T13:08:46.400Z,22.73
2023-02-02T13:11:32.798Z,12.23
2023-02-02T13:14:08.820Z,10.27
2023-02-02T13:16:38.139Z,14.75
2023-02-02T13:19:07.935Z,12.75
2023-02-02T13:21:37.402Z,9.85
2023-02-02T13:24:06.387Z,10.77
2023-02-02T13:26:40.992Z,9.07
2023-02-02T13:29:11.663Z,10.80
2023-02-02T13:31:51.426Z,13.98
2023-02-02T13:34:19.427Z,9.18
2023-02-02T13:36:56.349Z,11.52
2023-02-02T13:39:42.817Z,10.93
2023-02-02T13:42:21.111Z,13.52
2023-02-02T13:44:53.835Z,11.50
2023-02-02T13:47:26.759Z,15.02
2023-02-02T13:49:57.581Z,13.07
2023-02-02T13:52:44.316Z,12.40
2023-02-02T13:55:30.590Z,15.57
2023-02-02T13:58:13.930Z,13.88
2023-02-02T14:00:47.605Z,14.02
2023-02-02T14:03:32.285Z,18.42
2023-02-02T14:06:12.439Z,19.63
2023-02-02T14:08:51.785Z,14.82
2023-02-02T14:11:24.852Z,22.55
2023-02-02T14:14:14.376Z,18.85
2023-02-02T14:16:42.100Z,18.40
2023-02-02T14:19:17.315Z,20.98
2023-02-02T14:21:45.150Z,20.15
2023-02-02T14:24:25.350Z,23.05
2023-02-02T14:26:57.566Z,21.25
2023-02-02T14:29:31.642Z,19.20
2023-02-02T14:32:00.905Z,17.80
2023-02-02T14:34:30.676Z,19.88
2023-02-02T14:37:15.715Z,19.52
2023-02-02T14:39:49.529Z,21.60
2023-02-02T14:42:42.118Z,18.13
2023-02-02T14:45:12.956Z,22.15
2023-02-02T14:47:49.186Z,19.52
2023-02-02T14:50:18.874Z,19.33
2023-02-02T14:52:57.101Z,17.58
2023-02-02T14:55:25.721Z,19.40
2023-02-02T14:57:58.455Z,19.40
2023-02-02T15:00:33.727Z,26.08
2023-02-02T15:03:20.830Z,26.63
2023-02-02T15:06:01.984Z,17.25
2023-02-02T15:08:29.796Z,23.10
2023-02-02T15:10:59.181Z,25.02
2023-02-02T15:13:29.570Z,22.65
2023-02-02T15:16:05.614Z,21.55
2023-02-02T15:18:39.837Z,23.27
2023-02-02T15:21:08.840Z,20.95
2023-02-02T15:23:42.285Z,28.08
2023-02-02T15:26:10.032Z,24.30
2023-02-02T15:28:47.783Z,23.55
2023-02-02T15:31:34.524Z,23.92
2023-02-02T15:34:06.179Z,22.83
2023-02-02T15:36:36.189Z,24.45
2023-02-02T15:39:09.413Z,22.23
2023-02-02T15:44:19.091Z,25.67
2023-02-02T15:46:47.062Z,27.63
2023-02-02T15:49:33.643Z,28.50
2023-02-02T15:52:22.619Z,28.25
2023-02-02T15:54:55.039Z,26.60
2023-02-02T15:57:25.063Z,23.60
2023-02-02T15:59:52.858Z,22.05
2023-02-02T16:02:39.392Z,25.38
2023-02-02T16:05:27.029Z,21.77
2023-02-02T16:08:05.049Z,22.50
2023-02-02T16:10:34.284Z,22.42
2023-02-02T16:13:02.494Z,28.75
2023-02-02T16:15:34.585Z,22.17
2023-02-02T16:18:04.057Z,29.58
2023-02-02T16:20:36.304Z,33.13
2023-02-02T16:23:06.865Z,30.65
2023-02-02T16:25:38.013Z,33.50
2023-02-02T16:28:06.021Z,34.92
2023-02-02T16:30:35.887Z,30.63
2023-02-02T16:33:22.519Z,33.03
2023-02-02T16:35:50.391Z,26.67
2023-02-02T16:38:31.448Z,19.85
2023-02-02T16:41:12.738Z,20.23
2023-02-02T16:43:41.883Z,20.02
2023-02-02T16:46:12.170Z,16.00
2023-02-02T16:48:40.125Z,17.92
2023-02-02T16:51:17.181Z,15.70
2023-02-02T16:53:49.446Z,17.75
2023-02-02T16:56:31.067Z,21.08
2023-02-02T16:59:01.166Z,17.35
2023-02-02T17:01:38.752Z,89.22
2023-02-02T17:04:07.431Z,20.77
2023-02-02T17:06:51.368Z,27.02
2023-02-02T17:09:35.226Z,90.32
2023-02-02T17:12:16.797Z,23.83
2023-02-02T17:14:53.765Z,20.98
2023-02-02T17:20:09.764Z,33.90
2023-02-02T17:22:42.180Z,34.88
2023-02-02T17:25:15.601Z,28.27
2023-02-02T17:27:43.452Z,26.27
2023-02-02T17:30:15.357Z,38.05
2023-02-02T17:32:43.120Z,25.00
2023-02-02T17:35:21.131Z,46.25
2023-02-02T17:37:49.252Z,31.70
2023-02-02T17:40:18.252Z,33.38
2023-02-02T17:42:46.566Z,32.28
2023-02-02T17:45:16.400Z,28.48
2023-02-02T17:47:44.165Z,28.92
2023-02-02T17:50:12.425Z,32.30
2023-02-02T17:52:41.115Z,29.65
2023-02-02T17:55:26.161Z,33.35
2023-02-02T17:57:54.690Z,41.10
2023-02-02T18:00:24.918Z,43.20
2023-02-02T18:02:56.738Z,49.88
2023-02-02T18:05:25.203Z,55.20
2023-02-02T18:07:54.907Z,49.72
2023-02-02T18:10:26.258Z,49.05
2023-02-02T18:12:54.144Z,47.85
2023-02-02T18:15:22.147Z,191.70
2023-02-02T18:17:50.132Z,71.80
2023-02-02T18:20:18.204Z,55.08
2023-02-02T18:22:48.323Z,39.65
2023-02-02T18:25:16.271Z,47.13
2023-02-02T18:27:44.350Z,53.72
2023-02-02T18:30:12.723Z,50.88
2023-02-02T18:32:41.515Z,111.63
2023-02-02T18:35:10.966Z,54.92
2023-02-02T18:37:39.370Z,51.63
2023-02-02T18:40:08.033Z,47.47
2023-02-02T18:42:36.954Z,53.53
2023-02-02T18:45:05.827Z,53.75
2023-02-02T18:47:33.788Z,54.03
2023-02-02T18:50:01.816Z,101.35
2023-02-02T18:52:33.954Z,107.32
2023-02-02T18:55:02.099Z,55.42
2023-02-02T18:57:31.269Z,49.80
2023-02-02T19:00:00.166Z,51.03
2023-02-02T19:02:28.053Z,56.13
2023-02-02T19:05:14.823Z,61.53
2023-02-02T19:07:55.527Z,61.70
2023-02-02T19:10:24.489Z,51.60
2023-02-02T19:12:58.459Z,56.25
2023-02-02T19:15:26.903Z,69.95
2023-02-02T19:17:55.721Z,57.30
2023-02-02T19:20:23.617Z,57.78
2023-02-02T19:22:55.694Z,61.28
2023-02-02T19:25:23.696Z,113.03
2023-02-02T19:27:51.787Z,70.75
2023-02-02T19:30:20.901Z,165.40
2023-02-02T19:32:48.971Z,89.15
2023-02-02T19:35:21.452Z,87.65
2023-02-02T19:37:50.003Z,66.95
2023-02-02T19:40:22.617Z,68.97
2023-02-02T19:42:52.806Z,82.93
2023-02-02T19:45:22.949Z,83.70
2023-02-02T19:47:54.119Z,84.22
2023-02-02T19:50:23.227Z,78.57
2023-02-02T19:52:53.641Z,86.43
2023-02-02T19:55:26.618Z,93.43
2023-02-02T19:57:58.549Z,110.70
2023-02-02T20:00:28.635Z,145.48
2023-02-02T20:02:58.065Z,106.90
2023-02-02T20:05:37.363Z,101.15
2023-02-02T20:08:24.325Z,111.25
2023-02-02T20:10:53.254Z,123.68
2023-02-02T20:13:20.972Z,152.00
2023-02-02T20:15:49.837Z,162.40
2023-02-02T20:18:20.165Z,171.57
2023-02-02T20:20:50.122Z,131.93
2023-02-02T20:23:21.074Z,131.23
2023-02-02T20:25:49.264Z,132.57
2023-02-02T20:28:34.247Z,137.20
2023-02-02T20:31:02.704Z,124.35
2023-02-02T20:33:31.544Z,140.27
2023-02-02T20:36:00.501Z,134.15
2023-02-02T20:38:33.153Z,152.02
2023-02-02T20:43:32.999Z,137.27
2023-02-02T20:46:01.047Z,135.40
2023-02-02T20:48:29.377Z,134.50
2023-02-02T20:50:57.249Z,140.73
2023-02-02T20:53:25.010Z,145.93
2023-02-02T20:55:57.285Z,136.88
2023-02-02T20:58:25.394Z,135.35
2023-02-02T21:00:53.307Z,132.95
2023-02-02T21:03:21.389Z,136.77
2023-02-02T21:05:49.251Z,143.57
2023-02-02T21:08:16.985Z,140.20
2023-02-02T21:10:44.850Z,144.35
2023-02-02T21:13:12.598Z,141.02
2023-02-02T21:15:40.331Z,137.95
2023-02-02T21:18:08.284Z,129.30
2023-02-02T21:20:36.165Z,141.07
2023-02-02T21:23:04.070Z,141.48
2023-02-02T21:25:32.151Z,142.70
2023-02-02T21:28:00.382Z,138.18
2023-02-02T21:30:29.004Z,143.73
2023-02-02T21:32:57.019Z,132.60
2023-02-02T21:35:26.874Z,137.25
2023-02-02T21:37:57.416Z,141.23
2023-02-02T21:40:30.464Z,140.85
2023-02-02T21:42:59.401Z,134.15
2023-02-02T21:45:34.450Z,146.35
2023-02-02T21:48:03.545Z,129.90
2023-02-02T21:50:40.585Z,142.57
2023-02-02T21:53:08.352Z,144.85
2023-02-02T21:55:37.914Z,132.77
2023-02-02T21:58:11.873Z,133.70
2023-02-02T22:00:39.776Z,129.70
2023-02-02T22:03:21.260Z,141.25
2023-02-02T22:05:48.993Z,139.82
2023-02-02T22:08:24.331Z,136.15
2023-02-02T22:10:52.365Z,132.05
2023-02-02T22:13:21.116Z,139.68
2023-02-02T22:15:51.127Z,134.75
2023-02-02T22:18:23.223Z,133.18
2023-02-02T22:20:51.859Z,138.73
2023-02-02T22:23:27.399Z,146.65
2023-02-02T22:25:56.163Z,147.35
2023-02-02T22:28:24.274Z,135.13
2023-02-02T22:30:52.657Z,139.57
2023-02-02T22:33:20.920Z,138.27
2023-02-02T22:35:48.844Z,139.73
2023-02-02T22:38:18.233Z,144.38
2023-02-02T22:40:46.445Z,133.45
2023-02-02T22:43:16.297Z,135.77
2023-02-02T22:45:44.542Z,143.57
2023-02-02T22:48:13.028Z,130.77
2023-02-02T22:50:41.185Z,132.25
2023-02-02T22:53:09.199Z,132.05
2023-02-02T22:55:36.996Z,133.63
2023-02-02T22:58:05.712Z,127.75
2023-02-02T23:00:33.457Z,120.65
2023-02-02T23:03:01.743Z,119.65
2023-02-02T23:05:29.611Z,111.90
2023-02-02T23:07:57.516Z,119.60
2023-02-02T23:10:26.822Z,131.32
2023-02-02T23:12:55.935Z,122.82
2023-02-02T23:15:23.768Z,122.75
2023-02-02T23:17:51.611Z,121.75
2023-02-02T23:20:19.467Z,110.35
2023-02-02T23:22:47.415Z,115.32
2023-02-02T23:25:15.575Z,123.57
2023-02-02T23:27:43.523Z,138.20
2023-02-02T23:30:13.571Z,143.63
2023-02-02T23:32:41.918Z,136.05
2023-02-02T23:35:10.860Z,124.40
2023-02-02T23:37:39.122Z,122.97
2023-02-02T23:40:07.424Z,127.47
2023-02-02T23:42:35.288Z,139.32
2023-02-02T23:45:04.113Z,150.93
2023-02-02T23:47:33.513Z,150.10
2023-02-02T23:50:03.052Z,150.52
2023-02-02T23:52:31.346Z,138.93
2023-02-02T23:55:00.139Z,136.73
2023-02-02T23:57:27.997Z,130.18
2023-02-02T23:59:56.004Z,138.27
